createdAt,value
2022-11-09T00:00:13.148Z,12.70
2022-11-09T00:01:05.263Z,12.50
2022-11-09T00:01:37.230Z,13.30
2022-11-09T00:02:09.161Z,13.50
2022-11-09T00:02:44.016Z,12.60
2022-11-09T00:03:16.283Z,13.30
2022-11-09T00:03:48.377Z,14.00
2022-11-09T00:04:20.386Z,14.20
2022-11-09T00:04:52.447Z,12.30
2022-11-09T00:05:24.429Z,14.10
2022-11-09T00:05:57.421Z,15.00
2022-11-09T00:06:30.580Z,11.90
2022-11-09T00:07:02.846Z,12.10
2022-11-09T00:07:34.830Z,11.20
2022-11-09T00:08:08.561Z,14.20
2022-11-09T00:08:41.460Z,13.80
2022-11-09T00:09:13.229Z,12.80
2022-11-09T00:09:45.099Z,11.50
2022-11-09T00:10:16.972Z,11.00
2022-11-09T00:10:49.061Z,12.40
2022-11-09T00:11:21.367Z,12.40
2022-11-09T00:11:54.020Z,12.10
2022-11-09T00:12:26.145Z,14.00
2022-11-09T00:12:58.208Z,13.60
2022-11-09T00:13:30.115Z,12.60
2022-11-09T00:14:01.962Z,11.50
2022-11-09T00:14:34.687Z,11.90
2022-11-09T00:15:06.860Z,12.20
2022-11-09T00:15:38.799Z,15.80
2022-11-09T00:16:14.628Z,11.70
2022-11-09T00:16:46.489Z,11.90
2022-11-09T00:17:18.567Z,11.20
2022-11-09T00:17:50.289Z,11.40
2022-11-09T00:18:22.116Z,11.50
2022-11-09T00:18:55.494Z,11.00
2022-11-09T00:19:27.381Z,12.80
2022-11-09T00:19:59.237Z,12.70
2022-11-09T00:20:31.059Z,12.80
2022-11-09T00:21:11.836Z,12.30
2022-11-09T00:22:15.514Z,10.30
2022-11-09T00:22:48.524Z,9.90
2022-11-09T00:23:20.992Z,12.10
2022-11-09T00:23:54.396Z,11.40
2022-11-09T00:24:26.220Z,13.30
2022-11-09T00:24:58.016Z,11.40
2022-11-09T00:25:30.566Z,11.70
2022-11-09T00:26:08.229Z,12.70
2022-11-09T00:26:40.227Z,12.70
2022-11-09T00:27:17.345Z,12.00
2022-11-09T00:27:49.771Z,10.30
2022-11-09T00:28:21.699Z,11.40
2022-11-09T00:28:53.594Z,10.20
2022-11-09T00:29:25.341Z,13.10
2022-11-09T00:29:57.146Z,11.00
2022-11-09T00:30:28.916Z,13.30
2022-11-09T00:31:02.191Z,10.60
2022-11-09T00:31:34.376Z,10.10
2022-11-09T00:32:06.122Z,11.70
2022-11-09T00:32:37.947Z,11.10
2022-11-09T00:33:11.623Z,10.40
2022-11-09T00:33:46.754Z,11.70
2022-11-09T00:34:18.653Z,11.20
2022-11-09T00:34:50.660Z,9.90
2022-11-09T00:35:22.529Z,10.20
2022-11-09T00:35:55.070Z,11.40
2022-11-09T00:36:29.053Z,11.20
2022-11-09T00:37:00.829Z,12.90
2022-11-09T00:37:32.882Z,15.60
2022-11-09T00:38:04.791Z,10.50
2022-11-09T00:38:39.930Z,11.10
2022-11-09T00:39:11.795Z,11.70
2022-11-09T00:39:43.677Z,10.00
2022-11-09T00:40:15.641Z,13.30
2022-11-09T00:40:47.528Z,13.30
2022-11-09T00:41:20.193Z,10.90
2022-11-09T00:41:52.192Z,11.10
2022-11-09T00:42:24.123Z,13.80
2022-11-09T00:42:55.859Z,9.50
2022-11-09T00:43:27.923Z,10.90
2022-11-09T00:43:59.761Z,9.10
2022-11-09T00:44:32.093Z,11.50
2022-11-09T00:45:06.167Z,10.50
2022-11-09T00:45:38.140Z,12.00
2022-11-09T00:46:10.423Z,10.50
2022-11-09T00:46:42.867Z,13.50
2022-11-09T00:47:15.021Z,12.00
2022-11-09T00:47:46.758Z,12.40
2022-11-09T00:48:18.514Z,13.40
2022-11-09T00:48:50.393Z,12.40
2022-11-09T00:49:22.235Z,14.60
2022-11-09T00:49:54.067Z,17.00
2022-11-09T00:50:25.948Z,16.70
2022-11-09T00:50:58.487Z,13.00
2022-11-09T00:51:30.428Z,17.00
2022-11-09T00:52:02.098Z,14.10
2022-11-09T00:52:33.912Z,16.30
2022-11-09T00:53:05.717Z,12.70
2022-11-09T00:53:37.680Z,14.90
2022-11-09T00:54:09.534Z,12.00
2022-11-09T00:54:41.447Z,13.40
2022-11-09T00:55:13.474Z,14.80
2022-11-09T00:56:00.564Z,15.80
2022-11-09T00:56:32.432Z,14.40
2022-11-09T00:57:04.283Z,14.10
2022-11-09T00:57:36.146Z,14.30
2022-11-09T00:58:07.939Z,16.90
2022-11-09T00:58:40.606Z,28.80
2022-11-09T00:59:12.605Z,26.20
2022-11-09T00:59:44.379Z,26.40
2022-11-09T01:00:17.631Z,22.90
2022-11-09T01:00:50.651Z,24.60
2022-11-09T01:01:22.640Z,22.80
2022-11-09T01:01:54.475Z,24.00
2022-11-09T01:02:26.310Z,23.40
2022-11-09T01:02:58.234Z,21.90
2022-11-09T01:03:30.143Z,23.30
2022-11-09T01:04:02.178Z,22.80
2022-11-09T01:04:34.141Z,23.10
2022-11-09T01:05:06.258Z,22.90
2022-11-09T01:05:41.792Z,23.60
2022-11-09T01:06:16.438Z,21.30
2022-11-09T01:06:48.323Z,26.20
2022-11-09T01:07:20.323Z,21.10
2022-11-09T01:07:52.171Z,21.60
2022-11-09T01:08:23.982Z,22.80
2022-11-09T01:08:55.785Z,20.20
2022-11-09T01:09:27.540Z,21.00
2022-11-09T01:09:59.368Z,24.80
2022-11-09T01:10:31.905Z,19.80
2022-11-09T01:11:09.234Z,21.70
2022-11-09T01:11:41.168Z,21.70
2022-11-09T01:12:12.999Z,18.70
2022-11-09T01:12:44.758Z,23.90
2022-11-09T01:13:18.487Z,24.10
2022-11-09T01:13:51.072Z,24.80
2022-11-09T01:14:23.169Z,23.00
2022-11-09T01:14:55.101Z,25.30
2022-11-09T01:15:27.277Z,28.40
2022-11-09T01:15:59.025Z,23.10
2022-11-09T01:16:31.108Z,22.70
2022-11-09T01:17:03.215Z,22.20
2022-11-09T01:17:35.069Z,23.60
2022-11-09T01:18:07.408Z,26.20
2022-11-09T01:18:39.826Z,18.60
2022-11-09T01:19:11.943Z,25.10
2022-11-09T01:19:43.807Z,21.30
2022-11-09T01:20:17.339Z,24.30
2022-11-09T01:20:50.418Z,21.40
2022-11-09T01:21:22.796Z,23.50
2022-11-09T01:21:54.686Z,20.30
2022-11-09T01:22:26.518Z,24.00
2022-11-09T01:22:58.352Z,19.70
2022-11-09T01:23:30.868Z,17.30
2022-11-09T01:24:03.260Z,22.90
2022-11-09T01:24:35.110Z,22.00
2022-11-09T01:25:07.938Z,20.00
2022-11-09T01:25:40.256Z,18.20
2022-11-09T01:26:14.914Z,17.40
2022-11-09T01:26:46.835Z,15.90
2022-11-09T01:27:18.802Z,18.10
2022-11-09T01:27:50.609Z,18.20
2022-11-09T01:28:22.354Z,14.70
2022-11-09T01:28:54.308Z,19.20
2022-11-09T01:29:26.192Z,20.90
2022-11-09T01:29:58.106Z,19.60
2022-11-09T01:30:33.558Z,22.10
2022-11-09T01:31:11.587Z,25.10
2022-11-09T01:31:43.462Z,19.60
2022-11-09T01:32:15.348Z,18.60
2022-11-09T01:32:47.139Z,20.40
2022-11-09T01:33:19.325Z,19.60
2022-11-09T01:33:51.456Z,23.60
2022-11-09T01:34:24.177Z,22.90
2022-11-09T01:34:56.094Z,21.20
2022-11-09T01:35:27.939Z,21.50
2022-11-09T01:36:05.678Z,19.80
2022-11-09T01:36:37.625Z,21.10
2022-11-09T01:37:09.612Z,20.50
2022-11-09T01:37:41.413Z,20.20
2022-11-09T01:38:13.244Z,18.20
2022-11-09T01:38:45.345Z,18.60
2022-11-09T01:39:18.894Z,19.40
2022-11-09T01:39:50.802Z,22.50
2022-11-09T01:40:22.623Z,21.00
2022-11-09T01:40:54.601Z,21.30
2022-11-09T01:41:28.214Z,18.40
2022-11-09T01:42:00.172Z,19.10
2022-11-09T01:42:35.771Z,19.30
2022-11-09T01:43:22.681Z,22.00
2022-11-09T01:44:11.733Z,22.20
2022-11-09T01:44:43.630Z,18.00
2022-11-09T01:45:18.530Z,19.40
2022-11-09T01:45:56.393Z,18.30
2022-11-09T01:46:35.652Z,23.00
2022-11-09T01:47:17.791Z,18.90
2022-11-09T01:47:56.846Z,16.10
2022-11-09T01:48:38.549Z,17.30
2022-11-09T01:49:20.732Z,19.90
2022-11-09T01:49:57.320Z,17.10
2022-11-09T01:50:53.086Z,19.50
2022-11-09T01:51:46.025Z,19.00
2022-11-09T01:52:26.752Z,21.80
2022-11-09T01:53:36.710Z,24.10
2022-11-09T01:54:15.190Z,24.30
2022-11-09T01:54:53.027Z,28.50
2022-11-09T01:55:25.420Z,23.70
2022-11-09T01:56:02.608Z,24.00
2022-11-09T01:56:34.436Z,25.70
2022-11-09T01:57:13.610Z,23.20
2022-11-09T01:57:51.579Z,20.90
2022-11-09T01:58:31.359Z,21.00
2022-11-09T01:59:07.309Z,21.70
2022-11-09T01:59:52.814Z,18.60
2022-11-09T02:00:24.762Z,22.60
2022-11-09T02:00:59.222Z,19.90
2022-11-09T02:01:32.348Z,17.00
2022-11-09T02:02:04.791Z,18.40
2022-11-09T02:02:40.248Z,20.40
2022-11-09T02:03:21.859Z,21.60
2022-11-09T02:03:59.138Z,19.20
2022-11-09T02:04:36.418Z,21.90
2022-11-09T02:05:12.194Z,19.80
2022-11-09T02:05:45.592Z,18.20
2022-11-09T02:06:21.698Z,16.60
2022-11-09T02:06:57.010Z,18.60
2022-11-09T02:07:29.113Z,17.60
2022-11-09T02:08:02.440Z,16.40
2022-11-09T02:08:34.204Z,20.50
2022-11-09T02:09:19.059Z,18.90
2022-11-09T02:10:32.475Z,15.60
2022-11-09T02:11:09.460Z,18.90
2022-11-09T02:11:41.329Z,17.90
2022-11-09T02:12:13.596Z,19.00
2022-11-09T02:12:46.541Z,13.20
2022-11-09T02:13:22.074Z,12.30
2022-11-09T02:14:00.266Z,13.10
2022-11-09T02:14:34.237Z,16.10
2022-11-09T02:15:09.925Z,12.90
2022-11-09T02:15:45.681Z,11.70
2022-11-09T02:16:18.943Z,12.10
2022-11-09T02:16:50.988Z,13.30
2022-11-09T02:17:23.120Z,15.50
2022-11-09T02:17:56.548Z,12.70
2022-11-09T02:18:30.217Z,11.60
2022-11-09T02:19:02.303Z,13.90
2022-11-09T02:19:34.216Z,10.70
2022-11-09T02:20:11.915Z,10.80
2022-11-09T02:21:02.019Z,12.20
2022-11-09T02:21:34.234Z,11.40
2022-11-09T02:22:06.183Z,13.50
2022-11-09T02:22:38.284Z,12.40
2022-11-09T02:23:10.796Z,11.20
2022-11-09T02:23:42.956Z,9.30
2022-11-09T02:24:14.996Z,10.80
2022-11-09T02:24:47.393Z,10.90
2022-11-09T02:25:19.355Z,9.00
2022-11-09T02:25:59.340Z,9.60
2022-11-09T02:26:36.069Z,13.80
2022-11-09T02:27:08.489Z,10.30
2022-11-09T02:27:42.449Z,10.80
2022-11-09T02:28:15.873Z,14.70
2022-11-09T02:28:47.960Z,12.20
2022-11-09T02:29:24.469Z,10.80
2022-11-09T02:29:58.242Z,11.50
2022-11-09T02:30:32.490Z,10.10
2022-11-09T02:31:07.811Z,9.90
2022-11-09T02:31:45.810Z,11.30
2022-11-09T02:32:24.214Z,9.50
2022-11-09T02:32:56.023Z,9.20
2022-11-09T02:33:27.877Z,10.60
2022-11-09T02:34:04.901Z,11.30
2022-11-09T02:34:36.726Z,10.80
2022-11-09T02:35:10.026Z,12.20
2022-11-09T02:35:42.178Z,10.50
2022-11-09T02:36:13.998Z,12.00
2022-11-09T02:36:46.472Z,9.00
2022-11-09T02:37:48.733Z,8.90
2022-11-09T02:38:20.841Z,8.70
2022-11-09T02:38:55.105Z,11.30
2022-11-09T02:39:28.327Z,10.10
2022-11-09T02:40:02.442Z,9.60
2022-11-09T02:40:37.347Z,9.70
2022-11-09T02:41:11.532Z,11.40
2022-11-09T02:42:02.927Z,9.10
2022-11-09T02:42:36.003Z,8.20
2022-11-09T02:43:10.766Z,8.50
2022-11-09T02:43:42.659Z,8.00
2022-11-09T02:44:16.109Z,10.20
2022-11-09T02:44:51.250Z,8.10
2022-11-09T02:45:22.975Z,9.70
2022-11-09T02:45:54.758Z,8.70
2022-11-09T02:46:33.243Z,9.60
2022-11-09T02:47:05.093Z,8.50
2022-11-09T02:47:37.011Z,11.80
2022-11-09T02:48:08.869Z,7.80
2022-11-09T02:48:40.677Z,8.10
2022-11-09T02:49:12.546Z,10.30
2022-11-09T02:49:44.295Z,9.70
2022-11-09T02:50:16.090Z,9.30
2022-11-09T02:50:47.875Z,11.60
2022-11-09T02:51:19.746Z,9.10
2022-11-09T02:51:51.613Z,10.00
2022-11-09T02:52:24.042Z,15.70
2022-11-09T02:52:55.776Z,15.90
2022-11-09T02:53:27.452Z,11.80
2022-11-09T02:53:59.233Z,13.50
2022-11-09T02:54:31.011Z,12.90
2022-11-09T02:55:03.509Z,10.50
2022-11-09T02:55:35.591Z,9.50
2022-11-09T02:56:07.458Z,9.90
2022-11-09T02:56:39.313Z,10.80
2022-11-09T02:57:11.049Z,11.00
2022-11-09T02:57:42.933Z,11.70
2022-11-09T02:58:14.727Z,11.90
2022-11-09T02:58:46.624Z,9.30
2022-11-09T02:59:18.415Z,9.30
2022-11-09T02:59:50.286Z,11.80
2022-11-09T03:00:22.104Z,11.10
2022-11-09T03:00:53.984Z,10.00
2022-11-09T03:01:25.976Z,12.90
2022-11-09T03:01:57.844Z,11.10
2022-11-09T03:02:29.866Z,10.90
2022-11-09T03:03:02.424Z,12.20
2022-11-09T03:03:34.467Z,11.00
2022-11-09T03:04:06.460Z,10.60
2022-11-09T03:04:38.282Z,11.00
2022-11-09T03:05:10.361Z,10.50
2022-11-09T03:05:43.756Z,7.80
2022-11-09T03:06:16.804Z,11.00
2022-11-09T03:06:49.075Z,10.60
2022-11-09T03:07:21.136Z,12.90
2022-11-09T03:07:52.983Z,11.40
2022-11-09T03:08:24.884Z,11.60
2022-11-09T03:08:56.747Z,9.90
2022-11-09T03:09:28.512Z,10.70
2022-11-09T03:10:00.284Z,9.10
2022-11-09T03:10:32.143Z,10.50
2022-11-09T03:11:05.683Z,11.70
2022-11-09T03:11:39.947Z,11.20
2022-11-09T03:12:30.294Z,8.40
2022-11-09T03:13:02.037Z,8.20
2022-11-09T03:13:34.542Z,10.70
2022-11-09T03:14:07.016Z,10.00
2022-11-09T03:14:38.805Z,10.00
2022-11-09T03:15:10.820Z,9.80
2022-11-09T03:15:42.569Z,10.70
2022-11-09T03:16:14.516Z,11.40
2022-11-09T03:16:50.264Z,9.70
2022-11-09T03:17:22.794Z,9.60
2022-11-09T03:17:55.632Z,8.90
2022-11-09T03:18:27.490Z,11.90
2022-11-09T03:18:59.488Z,8.90
2022-11-09T03:19:31.190Z,8.00
2022-11-09T03:20:03.746Z,8.70
2022-11-09T03:20:35.988Z,8.60
2022-11-09T03:21:08.053Z,8.60
2022-11-09T03:21:39.807Z,8.80
2022-11-09T03:22:11.627Z,11.10
2022-11-09T03:22:43.569Z,10.00
2022-11-09T03:23:15.455Z,9.90
2022-11-09T03:23:48.821Z,8.60
2022-11-09T03:24:20.625Z,8.50
2022-11-09T03:24:52.432Z,10.40
2022-11-09T03:25:24.428Z,8.90
2022-11-09T03:25:56.187Z,8.40
2022-11-09T03:26:28.054Z,11.80
2022-11-09T03:26:59.880Z,8.60
2022-11-09T03:27:31.744Z,14.30
2022-11-09T03:28:06.783Z,9.70
2022-11-09T03:28:38.969Z,9.30
2022-11-09T03:29:10.964Z,11.70
2022-11-09T03:29:42.810Z,8.40
2022-11-09T03:30:15.443Z,11.30
2022-11-09T03:30:47.154Z,9.30
2022-11-09T03:31:18.973Z,9.90
2022-11-09T03:31:50.963Z,9.70
2022-11-09T03:32:22.738Z,9.50
2022-11-09T03:33:03.029Z,9.10
2022-11-09T03:33:35.242Z,9.70
2022-11-09T03:34:07.033Z,8.00
2022-11-09T03:34:38.920Z,9.70
2022-11-09T03:35:10.970Z,7.90
2022-11-09T03:35:43.594Z,9.90
2022-11-09T03:36:15.662Z,8.50
2022-11-09T03:36:47.375Z,6.20
2022-11-09T03:37:19.174Z,7.10
2022-11-09T03:37:51.266Z,10.30
2022-11-09T03:38:23.091Z,10.80
2022-11-09T03:38:54.818Z,8.40
2022-11-09T03:39:26.588Z,7.90
2022-11-09T03:39:58.690Z,8.20
2022-11-09T03:40:31.157Z,7.80
2022-11-09T03:41:03.496Z,11.20
2022-11-09T03:41:35.838Z,10.40
2022-11-09T03:42:07.610Z,9.50
2022-11-09T03:42:44.495Z,7.40
2022-11-09T03:43:16.747Z,8.80
2022-11-09T03:43:48.583Z,9.10
2022-11-09T03:44:20.467Z,8.80
2022-11-09T03:44:52.155Z,10.20
2022-11-09T03:45:24.599Z,8.50
2022-11-09T03:45:56.987Z,8.50
2022-11-09T03:46:28.887Z,8.30
2022-11-09T03:47:00.697Z,9.20
2022-11-09T03:47:32.437Z,8.80
2022-11-09T03:48:04.820Z,8.50
2022-11-09T03:48:36.594Z,8.80
2022-11-09T03:49:08.496Z,10.90
2022-11-09T03:49:40.339Z,7.30
2022-11-09T03:50:14.046Z,8.80
2022-11-09T03:50:46.062Z,12.90
2022-11-09T03:51:17.942Z,9.80
2022-11-09T03:51:50.404Z,8.70
2022-11-09T03:52:22.141Z,8.90
2022-11-09T03:52:54.038Z,10.00
2022-11-09T03:53:25.847Z,7.50
2022-11-09T03:53:57.624Z,8.70
2022-11-09T03:54:29.445Z,8.50
2022-11-09T03:55:01.464Z,8.30
2022-11-09T03:55:33.620Z,7.40
2022-11-09T03:56:05.810Z,8.70
2022-11-09T03:56:37.613Z,9.10
2022-11-09T03:57:09.747Z,8.70
2022-11-09T03:57:41.577Z,9.50
2022-11-09T03:58:13.408Z,7.60
2022-11-09T03:58:45.296Z,10.00
2022-11-09T03:59:17.213Z,10.60
2022-11-09T03:59:49.031Z,10.80
2022-11-09T04:00:22.633Z,13.00
2022-11-09T04:00:54.494Z,12.40
2022-11-09T04:01:26.346Z,9.00
2022-11-09T04:01:58.345Z,9.90
2022-11-09T04:02:30.181Z,10.30
2022-11-09T04:03:02.454Z,11.20
2022-11-09T04:03:34.383Z,9.40
2022-11-09T04:04:06.420Z,10.50
2022-11-09T04:04:38.183Z,12.70
2022-11-09T04:05:11.034Z,11.10
2022-11-09T04:05:42.905Z,12.00
2022-11-09T04:06:14.732Z,13.20
2022-11-09T04:06:48.636Z,11.20
2022-11-09T04:07:20.558Z,10.10
2022-11-09T04:07:55.059Z,10.00
2022-11-09T04:08:27.479Z,10.90
2022-11-09T04:08:59.443Z,10.90
2022-11-09T04:09:31.439Z,10.90
2022-11-09T04:10:04.173Z,11.90
2022-11-09T04:10:35.984Z,18.00
2022-11-09T04:11:07.790Z,10.00
2022-11-09T04:11:39.686Z,13.80
2022-11-09T04:12:11.459Z,10.50
2022-11-09T04:12:43.461Z,12.00
2022-11-09T04:13:15.218Z,10.70
2022-11-09T04:13:47.031Z,12.80
2022-11-09T04:14:18.836Z,10.50
2022-11-09T04:14:50.780Z,10.10
2022-11-09T04:15:22.611Z,11.60
2022-11-09T04:15:54.580Z,11.40
2022-11-09T04:16:26.576Z,8.70
2022-11-09T04:16:58.413Z,11.60
2022-11-09T04:17:30.280Z,9.20
2022-11-09T04:18:03.166Z,14.10
2022-11-09T04:18:35.128Z,7.90
2022-11-09T04:19:06.898Z,9.20
2022-11-09T04:19:38.677Z,9.90
2022-11-09T04:20:11.306Z,9.10
2022-11-09T04:20:43.919Z,8.20
2022-11-09T04:21:18.121Z,10.30
2022-11-09T04:21:53.409Z,9.80
2022-11-09T04:22:25.242Z,13.00
2022-11-09T04:23:03.018Z,9.30
2022-11-09T04:23:35.043Z,9.30
2022-11-09T04:24:06.917Z,9.30
2022-11-09T04:24:39.035Z,9.90
2022-11-09T04:25:10.889Z,8.70
2022-11-09T04:25:42.791Z,8.70
2022-11-09T04:26:14.756Z,9.90
2022-11-09T04:26:47.910Z,9.00
2022-11-09T04:27:19.921Z,10.50
2022-11-09T04:27:58.531Z,9.00
2022-11-09T04:28:30.671Z,11.00
2022-11-09T04:29:03.015Z,12.40
2022-11-09T04:29:35.208Z,10.30
2022-11-09T04:30:08.049Z,7.80
2022-11-09T04:30:40.130Z,11.80
2022-11-09T04:31:12.009Z,11.70
2022-11-09T04:31:43.749Z,11.90
2022-11-09T04:32:15.527Z,11.90
2022-11-09T04:32:47.315Z,10.40
2022-11-09T04:33:19.254Z,9.20
2022-11-09T04:33:51.494Z,10.10
2022-11-09T04:34:23.663Z,8.60
2022-11-09T04:34:55.394Z,9.80
2022-11-09T04:35:29.035Z,9.80
2022-11-09T04:36:03.162Z,11.80
2022-11-09T04:36:35.024Z,11.30
2022-11-09T04:37:08.085Z,9.00
2022-11-09T04:37:39.831Z,9.10
2022-11-09T04:38:13.631Z,8.60
2022-11-09T04:38:45.494Z,11.00
2022-11-09T04:39:17.328Z,9.40
2022-11-09T04:39:49.137Z,10.80
2022-11-09T04:40:21.165Z,10.00
2022-11-09T04:40:53.104Z,10.90
2022-11-09T04:41:25.020Z,9.10
2022-11-09T04:41:56.871Z,10.90
2022-11-09T04:42:28.667Z,10.60
2022-11-09T04:43:05.640Z,11.60
2022-11-09T04:43:37.361Z,11.20
2022-11-09T04:44:09.368Z,9.80
2022-11-09T04:44:42.156Z,9.90
2022-11-09T04:45:14.123Z,9.00
2022-11-09T04:45:46.940Z,11.30
2022-11-09T04:46:18.768Z,9.80
2022-11-09T04:46:50.700Z,9.70
2022-11-09T04:47:22.563Z,8.50
2022-11-09T04:47:59.179Z,9.30
2022-11-09T04:48:32.224Z,11.50
2022-11-09T04:49:04.064Z,8.70
2022-11-09T04:49:35.944Z,9.40
2022-11-09T04:50:08.413Z,10.80
2022-11-09T04:50:40.329Z,9.80
2022-11-09T04:51:12.418Z,11.90
2022-11-09T04:51:44.200Z,10.40
2022-11-09T04:52:16.106Z,17.90
2022-11-09T04:52:47.879Z,10.70
2022-11-09T04:53:19.708Z,13.50
2022-11-09T04:53:51.444Z,10.60
2022-11-09T04:54:23.415Z,10.80
2022-11-09T04:54:55.382Z,10.30
2022-11-09T04:55:27.315Z,10.50
2022-11-09T04:55:59.240Z,10.60
2022-11-09T04:56:31.156Z,10.40
2022-11-09T04:57:03.118Z,12.90
2022-11-09T04:57:34.892Z,10.80
2022-11-09T04:58:07.203Z,10.90
2022-11-09T04:58:39.066Z,11.60
2022-11-09T04:59:10.901Z,10.70
2022-11-09T04:59:42.600Z,9.70
2022-11-09T05:00:14.780Z,12.10
2022-11-09T05:00:46.650Z,10.60
2022-11-09T05:01:18.379Z,9.80
2022-11-09T05:01:50.259Z,12.00
2022-11-09T05:02:22.281Z,9.30
2022-11-09T05:02:54.165Z,9.80
2022-11-09T05:03:25.966Z,9.00
2022-11-09T05:03:57.869Z,9.50
2022-11-09T05:04:29.772Z,10.20
2022-11-09T05:05:01.597Z,9.10
2022-11-09T05:05:35.670Z,8.60
2022-11-09T05:06:26.730Z,10.30
2022-11-09T05:06:58.916Z,8.40
2022-11-09T05:07:30.903Z,10.20
2022-11-09T05:08:04.130Z,8.80
2022-11-09T05:08:35.941Z,11.90
2022-11-09T05:09:08.247Z,11.10
2022-11-09T05:09:40.310Z,9.30
2022-11-09T05:10:12.257Z,9.30
2022-11-09T05:10:44.404Z,9.40
2022-11-09T05:11:16.449Z,7.90
2022-11-09T05:11:48.225Z,7.90
2022-11-09T05:12:20.143Z,8.10
2022-11-09T05:12:57.805Z,8.40
2022-11-09T05:13:29.694Z,9.40
2022-11-09T05:14:02.584Z,8.50
2022-11-09T05:14:34.389Z,9.20
2022-11-09T05:15:06.938Z,9.10
2022-11-09T05:15:39.532Z,9.30
2022-11-09T05:16:11.872Z,8.30
2022-11-09T05:16:43.841Z,9.20
2022-11-09T05:17:15.654Z,9.30
2022-11-09T05:17:47.489Z,8.60
2022-11-09T05:18:19.469Z,7.90
2022-11-09T05:18:51.626Z,8.30
2022-11-09T05:19:23.426Z,9.40
2022-11-09T05:19:56.138Z,9.00
2022-11-09T05:20:28.573Z,9.50
2022-11-09T05:21:01.754Z,8.70
2022-11-09T05:21:33.668Z,6.90
2022-11-09T05:22:24.175Z,6.70
2022-11-09T05:23:16.801Z,7.10
2022-11-09T05:24:01.229Z,8.00
2022-11-09T05:24:33.117Z,8.00
2022-11-09T05:25:05.329Z,8.20
2022-11-09T05:25:37.407Z,8.50
2022-11-09T05:26:09.595Z,10.10
2022-11-09T05:26:42.423Z,7.40
2022-11-09T05:27:14.333Z,10.40
2022-11-09T05:27:46.101Z,11.10
2022-11-09T05:28:17.965Z,9.00
2022-11-09T05:28:49.771Z,8.30
2022-11-09T05:29:21.942Z,11.20
2022-11-09T05:29:53.702Z,7.70
2022-11-09T05:30:25.945Z,9.60
2022-11-09T05:30:57.921Z,16.20
2022-11-09T05:31:30.928Z,14.20
2022-11-09T05:32:02.853Z,15.40
2022-11-09T05:32:38.138Z,14.10
2022-11-09T05:33:10.286Z,16.90
2022-11-09T05:33:42.325Z,16.30
2022-11-09T05:34:14.436Z,25.20
2022-11-09T05:34:46.260Z,18.30
2022-11-09T05:35:18.063Z,19.20
2022-11-09T05:35:49.984Z,17.60
2022-11-09T05:36:22.579Z,14.60
2022-11-09T05:36:57.107Z,17.30
2022-11-09T05:37:31.196Z,15.40
2022-11-09T05:38:03.111Z,15.90
2022-11-09T05:38:35.048Z,16.10
2022-11-09T05:39:06.848Z,10.80
2022-11-09T05:39:38.914Z,10.40
2022-11-09T05:40:11.112Z,12.40
2022-11-09T05:40:43.042Z,9.20
2022-11-09T05:41:15.354Z,10.90
2022-11-09T05:41:47.313Z,11.90
2022-11-09T05:42:19.411Z,15.20
2022-11-09T05:42:51.304Z,13.00
2022-11-09T05:43:23.136Z,15.50
2022-11-09T05:43:55.167Z,12.60
2022-11-09T05:44:26.970Z,10.60
2022-11-09T05:45:15.080Z,11.20
2022-11-09T05:45:50.571Z,10.10
2022-11-09T05:46:22.605Z,9.50
2022-11-09T05:46:54.446Z,10.60
2022-11-09T05:47:26.425Z,11.10
2022-11-09T05:47:58.320Z,11.20
2022-11-09T05:48:30.131Z,9.50
2022-11-09T05:49:03.293Z,10.30
2022-11-09T05:49:35.649Z,9.70
2022-11-09T05:50:09.490Z,11.80
2022-11-09T05:50:42.499Z,8.70
2022-11-09T05:51:15.852Z,13.40
2022-11-09T05:51:47.707Z,10.20
2022-11-09T05:52:19.763Z,8.60
2022-11-09T05:52:52.546Z,10.30
2022-11-09T05:53:24.544Z,8.60
2022-11-09T05:53:56.371Z,11.20
2022-11-09T05:54:28.222Z,9.40
2022-11-09T05:55:00.423Z,12.10
2022-11-09T05:55:32.893Z,9.30
2022-11-09T05:56:07.605Z,10.00
2022-11-09T05:56:39.530Z,10.70
2022-11-09T05:57:11.485Z,8.80
2022-11-09T05:57:43.262Z,14.00
2022-11-09T05:58:15.221Z,10.00
2022-11-09T05:58:47.559Z,13.00
2022-11-09T05:59:19.369Z,11.30
2022-11-09T05:59:51.364Z,10.00
2022-11-09T06:00:23.425Z,9.00
2022-11-09T06:00:55.430Z,12.10
2022-11-09T06:01:27.342Z,9.60
2022-11-09T06:01:59.320Z,10.20
2022-11-09T06:02:31.981Z,12.90
2022-11-09T06:03:09.545Z,15.70
2022-11-09T06:03:43.488Z,12.20
2022-11-09T06:04:15.457Z,13.10
2022-11-09T06:04:47.398Z,11.90
2022-11-09T06:05:22.621Z,16.70
2022-11-09T06:05:54.634Z,10.70
2022-11-09T06:06:27.412Z,12.40
2022-11-09T06:06:59.504Z,11.40
2022-11-09T06:07:33.467Z,10.20
2022-11-09T06:08:16.209Z,11.60
2022-11-09T06:08:49.537Z,9.70
2022-11-09T06:09:21.276Z,11.50
2022-11-09T06:09:53.116Z,11.00
2022-11-09T06:10:25.075Z,16.40
2022-11-09T06:11:02.336Z,11.90
2022-11-09T06:11:34.290Z,14.70
2022-11-09T06:12:06.707Z,11.00
2022-11-09T06:12:38.593Z,10.00
2022-11-09T06:13:11.437Z,11.30
2022-11-09T06:13:43.553Z,10.10
2022-11-09T06:14:15.472Z,13.90
2022-11-09T06:14:47.770Z,11.40
2022-11-09T06:15:19.637Z,14.60
2022-11-09T06:15:55.871Z,13.80
2022-11-09T06:16:27.861Z,12.60
2022-11-09T06:16:59.945Z,16.80
2022-11-09T06:17:31.851Z,13.60
2022-11-09T06:18:04.082Z,13.30
2022-11-09T06:18:36.902Z,11.10
2022-11-09T06:19:08.821Z,10.80
2022-11-09T06:19:40.909Z,10.90
2022-11-09T06:20:12.802Z,9.70
2022-11-09T06:20:44.894Z,14.90
2022-11-09T06:21:16.779Z,9.60
2022-11-09T06:21:48.631Z,7.70
2022-11-09T06:22:20.470Z,9.50
2022-11-09T06:23:02.557Z,10.00
2022-11-09T06:23:35.318Z,13.10
2022-11-09T06:24:07.546Z,10.20
2022-11-09T06:24:39.794Z,10.50
2022-11-09T06:25:11.815Z,14.80
2022-11-09T06:25:43.681Z,11.50
2022-11-09T06:26:15.895Z,9.90
2022-11-09T06:26:47.718Z,12.10
2022-11-09T06:27:19.467Z,10.70
2022-11-09T06:27:54.319Z,9.60
2022-11-09T06:28:26.751Z,11.70
2022-11-09T06:28:58.703Z,11.20
2022-11-09T06:29:30.725Z,9.30
2022-11-09T06:30:02.802Z,17.60
2022-11-09T06:30:34.709Z,14.20
2022-11-09T06:31:10.146Z,15.10
2022-11-09T06:31:42.932Z,16.80
2022-11-09T06:32:14.852Z,12.00
2022-11-09T06:32:46.920Z,13.10
2022-11-09T06:33:19.015Z,12.70
2022-11-09T06:33:51.163Z,9.90
2022-11-09T06:34:23.024Z,14.80
2022-11-09T06:34:54.846Z,14.90
2022-11-09T06:35:27.144Z,14.70
2022-11-09T06:35:59.775Z,13.30
2022-11-09T06:36:31.569Z,17.30
2022-11-09T06:37:03.836Z,21.50
2022-11-09T06:37:35.781Z,16.80
2022-11-09T06:38:09.387Z,17.90
2022-11-09T06:38:41.400Z,18.60
2022-11-09T06:39:13.336Z,16.20
2022-11-09T06:39:46.884Z,18.00
2022-11-09T06:40:18.878Z,17.80
2022-11-09T06:40:55.367Z,20.40
2022-11-09T06:41:27.106Z,14.60
2022-11-09T06:41:58.918Z,14.50
2022-11-09T06:42:30.885Z,12.40
2022-11-09T06:43:03.567Z,16.00
2022-11-09T06:43:35.376Z,12.90
2022-11-09T06:44:07.467Z,18.20
2022-11-09T06:44:39.212Z,13.20
2022-11-09T06:45:11.077Z,10.20
2022-11-09T06:45:42.767Z,12.00
2022-11-09T06:46:16.950Z,11.50
2022-11-09T06:46:48.909Z,14.20
2022-11-09T06:47:20.680Z,12.40
2022-11-09T06:47:56.922Z,11.20
2022-11-09T06:48:28.744Z,11.50
2022-11-09T06:49:01.100Z,9.60
2022-11-09T06:49:32.996Z,12.60
2022-11-09T06:50:05.310Z,11.70
2022-11-09T06:50:37.354Z,11.50
2022-11-09T06:51:10.031Z,14.20
2022-11-09T06:51:41.933Z,10.80
2022-11-09T06:52:13.773Z,9.10
2022-11-09T06:52:45.560Z,12.00
2022-11-09T06:53:18.375Z,9.50
2022-11-09T06:53:50.611Z,9.80
2022-11-09T06:54:22.457Z,10.10
2022-11-09T06:54:54.349Z,14.20
2022-11-09T06:55:28.017Z,15.90
2022-11-09T06:56:04.587Z,11.80
2022-11-09T06:56:36.387Z,11.70
2022-11-09T06:57:08.621Z,11.10
2022-11-09T06:57:40.693Z,11.20
2022-11-09T06:58:15.516Z,12.20
2022-11-09T06:58:47.688Z,15.50
2022-11-09T06:59:19.701Z,12.60
2022-11-09T06:59:51.615Z,12.10
2022-11-09T07:00:25.127Z,12.80
2022-11-09T07:00:57.326Z,11.80
2022-11-09T07:01:29.523Z,10.90
2022-11-09T07:02:01.918Z,15.80
2022-11-09T07:02:33.938Z,10.90
2022-11-09T07:03:05.883Z,12.00
2022-11-09T07:03:38.664Z,13.60
2022-11-09T07:04:13.743Z,10.20
2022-11-09T07:04:45.648Z,10.70
2022-11-09T07:05:17.533Z,13.50
2022-11-09T07:05:50.814Z,11.60
2022-11-09T07:06:22.801Z,11.40
2022-11-09T07:06:54.753Z,10.40
2022-11-09T07:07:28.213Z,12.90
2022-11-09T07:08:01.351Z,12.90
2022-11-09T07:08:34.661Z,9.30
2022-11-09T07:09:07.516Z,10.00
2022-11-09T07:09:39.497Z,14.80
2022-11-09T07:10:11.948Z,9.50
2022-11-09T07:10:44.626Z,12.20
2022-11-09T07:11:16.496Z,14.70
2022-11-09T07:11:49.070Z,10.80